Time;durP1;ratioP1;P1;durP2;ratioP2;P2;SDS_P1;SDS_P2;PMS_P1;PMS_P2;Temp;Humidity;BMP_temperature;BMP_pressure;BME280_temperature;BME280_humidity;BME280_pressure;Samples;Min_cycle;Max_cycle;Signal;HPM_P1;HPM_P2
2022/03/14 00:02:06;;;;;;;15.40;6.80;;;12.20;66.80;;;;;;4945350;28;20032;-67
2022/03/14 00:04:34;;;;;;;13.02;7.10;;;12.20;66.60;;;;;;4944678;28;20037;-67
2022/03/14 00:07:00;;;;;;;14.65;6.63;;;12.20;66.80;;;;;;4951086;28;20100;-67
2022/03/14 00:09:27;;;;;;;13.75;7.47;;;12.10;66.60;;;;;;4938006;28;20432;-67
2022/03/14 00:11:57;;;;;;;12.80;6.70;;;12.20;66.70;;;;;;4939667;28;20049;-67
2022/03/14 00:14:26;;;;;;;15.93;6.32;;;12.20;66.60;;;;;;4950798;28;20054;-67
2022/03/14 00:17:08;;;;;;;13.60;7.22;;;12.20;66.50;;;;;;4942787;28;20028;-67
2022/03/14 00:19:34;;;;;;;13.38;6.78;;;12.10;66.40;;;;;;4948956;28;20063;-67
2022/03/14 00:22:00;;;;;;;13.75;7.25;;;12.20;66.50;;;;;;4950195;28;20108;-67
2022/03/14 00:24:28;;;;;;;15.25;8.00;;;12.10;66.50;;;;;;4950288;28;20036;-67
2022/03/14 00:26:54;;;;;;;13.30;7.00;;;12.20;66.50;;;;;;4951333;28;20110;-67
2022/03/14 00:29:21;;;;;;;14.25;7.15;;;12.10;66.60;;;;;;4949898;28;20054;-67
2022/03/14 00:31:47;;;;;;;11.95;7.03;;;12.10;66.50;;;;;;4938605;28;20048;-67
2022/03/14 00:34:14;;;;;;;14.55;7.25;;;12.20;66.70;;;;;;4938317;28;20485;-67
2022/03/14 00:36:42;;;;;;;12.65;7.30;;;12.10;66.60;;;;;;4950550;28;20442;-67
2022/03/14 00:39:08;;;;;;;12.32;6.72;;;12.10;66.70;;;;;;4951036;28;20130;-67
2022/03/14 00:41:34;;;;;;;12.77;7.22;;;12.10;66.70;;;;;;4950596;28;20496;-67
2022/03/14 00:44:00;;;;;;;14.23;7.45;;;12.10;66.80;;;;;;4950673;28;20422;-67
2022/03/14 00:46:26;;;;;;;14.75;7.60;;;12.10;66.60;;;;;;4950495;28;20047;-67
2022/03/14 00:48:51;;;;;;;11.43;6.72;;;12.10;66.60;;;;;;4950506;28;20078;-67
2022/03/14 00:51:17;;;;;;;13.40;7.18;;;12.10;66.80;;;;;;4950364;28;20055;-67
2022/03/14 00:53:42;;;;;;;14.07;7.25;;;12.00;66.90;;;;;;4950771;28;20042;-67
2022/03/14 00:56:08;;;;;;;18.85;8.32;;;12.00;66.90;;;;;;4984235;28;20028;-67
2022/03/14 00:58:34;;;;;;;14.57;7.88;;;12.10;67.00;;;;;;4937728;28;20047;-67
2022/03/14 01:01:03;;;;;;;14.40;7.60;;;12.00;67.00;;;;;;4940520;28;20039;-67
2022/03/14 01:03:28;;;;;;;17.05;8.38;;;12.00;67.10;;;;;;4950263;28;20031;-67
2022/03/14 01:05:54;;;;;;;15.60;7.90;;;12.00;67.30;;;;;;4983473;28;20378;-67
2022/03/14 01:08:20;;;;;;;18.77;8.55;;;12.00;67.40;;;;;;4954789;28;20457;-67
2022/03/14 01:10:48;;;;;;;17.38;9.30;;;12.10;67.70;;;;;;4936957;28;20040;-67
2022/03/14 01:13:13;;;;;;;16.67;8.50;;;12.00;67.70;;;;;;4959226;28;20042;-67
2022/03/14 01:15:39;;;;;;;18.15;6.57;;;12.00;67.90;;;;;;4948353;28;20044;-67
2022/03/14 01:18:05;;;;;;;17.60;7.80;;;12.10;68.30;;;;;;4939743;28;20027;-67
2022/03/14 01:20:33;;;;;;;16.33;8.80;;;12.10;68.80;;;;;;4952573;28;20043;-67
2022/03/14 01:22:58;;;;;;;16.30;8.68;;;12.10;68.80;;;;;;4931602;28;20043;-67
2022/03/14 01:25:24;;;;;;;18.52;8.00;;;12.10;68.90;;;;;;5008730;28;20029;-67
2022/03/14 01:27:51;;;;;;;17.02;8.82;;;12.10;69.10;;;;;;4965434;28;20028;-67
2022/03/14 01:30:17;;;;;;;16.00;7.93;;;12.10;69.10;;;;;;4989120;28;20479;-67
2022/03/14 01:32:43;;;;;;;15.77;8.40;;;12.10;69.20;;;;;;4994024;28;20033;-67
2022/03/14 01:35:09;;;;;;;16.58;8.18;;;12.10;69.80;;;;;;4964819;28;20084;-67
2022/03/14 01:37:34;;;;;;;13.05;7.85;;;12.10;69.60;;;;;;4957678;28;20023;-67
2022/03/14 01:40:00;;;;;;;14.80;7.75;;;12.10;69.80;;;;;;4951305;28;20046;-67
2022/03/14 01:42:26;;;;;;;13.85;7.60;;;12.20;69.80;;;;;;5008698;28;20035;-67
2022/03/14 01:44:51;;;;;;;19.30;8.50;;;12.20;69.90;;;;;;4949689;28;20386;-67
2022/03/14 01:47:17;;;;;;;13.63;7.65;;;12.20;69.90;;;;;;4943459;28;20027;-67
2022/03/14 01:49:44;;;;;;;17.38;8.85;;;12.20;70.00;;;;;;4943123;28;20398;-67
2022/03/14 01:52:11;;;;;;;21.75;8.68;;;12.20;70.10;;;;;;4946696;28;20042;-67
2022/03/14 01:54:39;;;;;;;17.08;8.65;;;12.30;70.30;;;;;;4968516;28;20118;-66
2022/03/14 01:57:05;;;;;;;14.95;8.13;;;12.30;70.20;;;;;;4953523;28;20027;-67
2022/03/14 01:59:32;;;;;;;16.05;8.52;;;12.30;70.10;;;;;;5002050;28;20074;-67
2022/03/14 02:02:10;;;;;;;14.75;8.20;;;12.30;70.40;;;;;;4954192;28;20039;-66
2022/03/14 02:04:37;;;;;;;18.25;8.52;;;12.30;70.50;;;;;;4948824;28;20364;-67
2022/03/14 02:07:04;;;;;;;17.15;8.52;;;12.30;70.40;;;;;;4949222;28;20054;-67
2022/03/14 02:09:30;;;;;;;16.73;9.07;;;12.30;70.50;;;;;;4942577;28;20048;-67
2022/03/14 02:11:56;;;;;;;15.05;9.13;;;12.30;70.50;;;;;;4951146;28;20032;-67
2022/03/14 02:14:25;;;;;;;15.98;9.40;;;12.30;70.70;;;;;;4949185;28;20121;-67
2022/03/14 02:16:51;;;;;;;18.58;9.27;;;12.30;70.70;;;;;;4935954;28;20027;-67
2022/03/14 02:19:20;;;;;;;16.48;9.52;;;12.30;70.90;;;;;;4949941;28;20036;-67
2022/03/14 02:21:46;;;;;;;23.42;8.90;;;12.30;71.00;;;;;;4948341;28;20383;-67
2022/03/14 02:24:14;;;;;;;18.02;8.95;;;12.20;71.00;;;;;;4952389;28;20470;-67
2022/03/14 02:26:40;;;;;;;17.50;8.98;;;12.30;71.20;;;;;;4938276;28;20043;-67
2022/03/14 02:29:10;;;;;;;15.48;9.07;;;12.20;71.30;;;;;;4946958;28;20094;-67
2022/03/14 02:31:36;;;;;;;17.90;8.65;;;12.20;71.40;;;;;;4948599;28;20748;-67
2022/03/14 02:34:07;;;;;;;16.40;8.15;;;12.20;71.40;;;;;;4993010;28;20399;-67
2022/03/14 02:36:34;;;;;;;17.00;9.10;;;12.20;71.50;;;;;;4946361;28;20074;-67
2022/03/14 02:38:59;;;;;;;16.35;8.52;;;12.20;71.60;;;;;;4933307;28;20514;-67
2022/03/14 02:41:25;;;;;;;25.80;9.23;;;12.30;71.70;;;;;;4945944;28;20031;-67
2022/03/14 02:43:56;;;;;;;16.08;9.13;;;12.20;71.80;;;;;;4944356;28;20509;-67
2022/03/14 02:46:21;;;;;;;15.35;8.77;;;12.20;71.90;;;;;;4951769;28;20039;-67
2022/03/14 02:48:47;;;;;;;14.68;7.72;;;12.30;72.10;;;;;;4952280;28;20046;-67
2022/03/14 02:51:13;;;;;;;14.77;8.35;;;12.30;72.10;;;;;;4952243;28;20100;-67
2022/03/14 02:53:39;;;;;;;13.65;8.50;;;12.30;72.30;;;;;;4952562;28;20038;-67
2022/03/14 02:56:04;;;;;;;14.98;7.90;;;12.30;72.50;;;;;;4951894;28;20032;-67
2022/03/14 02:58:33;;;;;;;20.20;8.90;;;12.30;72.50;;;;;;4940234;28;20052;-67
2022/03/14 03:01:01;;;;;;;14.57;8.27;;;12.30;72.70;;;;;;4942728;28;20058;-67
2022/03/14 03:03:27;;;;;;;18.08;9.65;;;12.30;72.80;;;;;;4957272;28;20047;-67
2022/03/14 03:05:54;;;;;;;15.50;8.73;;;12.30;72.90;;;;;;4952551;28;20041;-67
2022/03/14 03:08:22;;;;;;;16.05;8.40;;;12.40;73.10;;;;;;4952365;28;20073;-67
2022/03/14 03:10:48;;;;;;;13.43;7.97;;;12.30;73.30;;;;;;4943884;28;20097;-67
2022/03/14 03:13:14;;;;;;;17.95;9.70;;;12.30;73.50;;;;;;4943896;28;20027;-67
2022/03/14 03:15:39;;;;;;;16.25;8.65;;;12.30;73.60;;;;;;4951592;28;20045;-66
2022/03/14 03:18:06;;;;;;;14.43;8.40;;;12.30;73.90;;;;;;4951910;28;20039;-67
2022/03/14 03:20:32;;;;;;;19.75;9.25;;;12.30;74.10;;;;;;4952178;28;20477;-67
2022/03/14 03:22:57;;;;;;;14.38;8.57;;;12.20;74.30;;;;;;4952331;28;20027;-67
2022/03/14 03:25:23;;;;;;;22.45;8.20;;;12.20;74.60;;;;;;4942402;28;20426;-67
2022/03/14 03:27:49;;;;;;;16.20;9.27;;;12.20;74.80;;;;;;4948834;28;20374;-67
2022/03/14 03:30:15;;;;;;;13.73;8.13;;;12.20;75.00;;;;;;4951666;28;20054;-66
2022/03/14 03:32:42;;;;;;;15.95;8.30;;;12.20;75.20;;;;;;5005538;28;20041;-66
2022/03/14 03:35:08;;;;;;;13.35;7.97;;;12.10;75.30;;;;;;4981131;28;20031;-67
2022/03/14 03:37:34;;;;;;;17.08;8.55;;;12.10;75.50;;;;;;4997834;28;20065;-66
2022/03/14 03:40:00;;;;;;;18.42;8.05;;;12.10;75.60;;;;;;4986747;28;20031;-73
2022/03/14 03:42:25;;;;;;;14.23;7.57;;;12.10;75.90;;;;;;5009118;28;20467;-67
2022/03/14 03:44:51;;;;;;;14.02;7.05;;;12.20;76.10;;;;;;5000400;28;20497;-67
2022/03/14 03:47:17;;;;;;;12.93;7.78;;;12.10;76.20;;;;;;4976340;28;20031;-67
2022/03/14 03:49:43;;;;;;;14.40;7.53;;;12.10;76.30;;;;;;4944453;28;20088;-67
2022/03/14 03:52:09;;;;;;;16.00;7.15;;;12.10;76.50;;;;;;4945713;28;20027;-66
2022/03/14 03:54:35;;;;;;;17.15;6.85;;;12.10;76.60;;;;;;4945296;28;20118;-66
2022/03/14 03:57:01;;;;;;;12.77;7.88;;;12.10;76.80;;;;;;4983937;28;20106;-67
2022/03/14 03:59:26;;;;;;;11.90;7.05;;;12.10;77.00;;;;;;5008068;28;20571;-67
2022/03/14 04:01:52;;;;;;;12.98;6.95;;;12.10;77.10;;;;;;4975904;28;20059;-67
2022/03/14 04:04:18;;;;;;;14.95;7.35;;;12.10;77.30;;;;;;5004580;28;20034;-67
2022/03/14 04:06:44;;;;;;;17.95;7.72;;;12.10;77.60;;;;;;4992090;28;20112;-67
2022/03/14 04:09:10;;;;;;;12.10;6.88;;;12.10;78.30;;;;;;5000333;28;20106;-67
2022/03/14 04:11:36;;;;;;;14.00;7.40;;;12.10;77.80;;;;;;5001487;28;20118;-67
2022/03/14 04:14:03;;;;;;;11.43;6.82;;;12.10;77.80;;;;;;4996338;28;20489;-67
2022/03/14 04:16:29;;;;;;;15.32;7.28;;;12.20;78.00;;;;;;4994526;28;20031;-66
2022/03/14 04:18:57;;;;;;;13.73;7.57;;;12.10;78.00;;;;;;5009919;28;20036;-66
2022/03/14 04:21:23;;;;;;;14.32;7.53;;;12.10;78.20;;;;;;5015276;28;20603;-67
2022/03/14 04:23:49;;;;;;;14.23;7.53;;;12.10;78.30;;;;;;4997098;28;20056;-67
2022/03/14 04:26:15;;;;;;;12.02;7.20;;;12.10;78.50;;;;;;4956767;28;20058;-67
2022/03/14 04:28:41;;;;;;;12.35;6.70;;;12.00;78.60;;;;;;4950622;28;20545;-66
2022/03/14 04:31:09;;;;;;;9.73;6.13;;;12.00;78.80;;;;;;4950660;28;20058;-67
2022/03/14 04:33:35;;;;;;;10.63;6.13;;;12.00;78.90;;;;;;5010007;28;20032;-67
2022/03/14 04:36:01;;;;;;;12.15;7.18;;;12.00;79.10;;;;;;4951164;28;20043;-66
2022/03/14 04:38:28;;;;;;;13.82;6.72;;;12.00;79.30;;;;;;4951034;28;20080;-67
2022/03/14 04:40:56;;;;;;;12.48;7.05;;;12.10;79.50;;;;;;4950597;28;20113;-67
2022/03/14 04:43:22;;;;;;;10.43;5.97;;;12.00;79.60;;;;;;4951210;28;20035;-66
2022/03/14 04:45:49;;;;;;;10.95;5.40;;;12.10;79.90;;;;;;4950263;28;20043;-67
2022/03/14 04:48:15;;;;;;;15.07;6.55;;;12.10;80.20;;;;;;4943674;28;20040;-67
2022/03/14 04:50:42;;;;;;;9.98;6.32;;;12.10;80.30;;;;;;4945320;28;20074;-67
2022/03/14 04:53:08;;;;;;;12.52;6.80;;;12.10;80.30;;;;;;4941964;28;20118;-67
2022/03/14 04:55:35;;;;;;;13.70;6.20;;;12.10;80.50;;;;;;4946561;28;20082;-67
2022/03/14 04:58:01;;;;;;;9.18;5.50;;;12.10;80.60;;;;;;4950382;28;20067;-67
2022/03/14 05:00:29;;;;;;;10.80;5.40;;;12.10;80.70;;;;;;4947304;28;20684;-67
2022/03/14 05:03:05;;;;;;;11.70;5.30;;;12.10;80.90;;;;;;4958973;28;20043;-67
2022/03/14 05:05:36;;;;;;;10.02;5.57;;;12.10;81.10;;;;;;4950171;28;20490;-67
2022/03/14 05:08:02;;;;;;;8.43;5.20;;;12.10;81.20;;;;;;4950840;28;20070;-66
2022/03/14 05:10:28;;;;;;;7.82;5.07;;;12.10;81.30;;;;;;4949858;28;20043;-67
2022/03/14 05:12:54;;;;;;;7.47;5.00;;;12.10;81.50;;;;;;4953586;28;20395;-66
2022/03/14 05:15:20;;;;;;;9.65;5.00;;;12.10;81.60;;;;;;4950718;28;20035;-66
2022/03/14 05:17:46;;;;;;;10.30;4.95;;;12.10;81.80;;;;;;4950562;28;20070;-67
2022/03/14 05:20:12;;;;;;;7.28;4.30;;;12.10;81.90;;;;;;4931472;28;20031;-67
2022/03/14 05:22:48;;;;;;;7.80;4.88;;;12.10;82.00;;;;;;4944195;28;20036;-66
2022/03/14 05:25:18;;;;;;;7.82;4.78;;;12.10;82.10;;;;;;4950434;28;20490;-66
2022/03/14 05:27:45;;;;;;;8.13;5.07;;;12.10;82.20;;;;;;4949945;28;20043;-66
2022/03/14 05:30:12;;;;;;;7.55;4.57;;;12.10;82.20;;;;;;4940761;29;20054;-67
2022/03/14 05:32:42;;;;;;;8.05;4.43;;;12.10;82.40;;;;;;4998179;28;20029;-66
2022/03/14 05:35:09;;;;;;;6.05;3.30;;;12.20;82.50;;;;;;4948052;28;20040;-66
2022/03/14 05:37:34;;;;;;;13.40;5.32;;;12.10;82.50;;;;;;4987377;28;20036;-67
2022/03/14 05:40:00;;;;;;;7.88;4.10;;;12.20;82.70;;;;;;5006332;28;20029;-67
2022/03/14 05:42:26;;;;;;;6.50;3.85;;;12.20;82.70;;;;;;4954890;28;20037;-67
2022/03/14 05:44:52;;;;;;;7.47;4.10;;;12.20;82.90;;;;;;4979689;28;20037;-66
2022/03/14 05:47:19;;;;;;;7.85;3.83;;;12.30;83.00;;;;;;5019272;28;20034;-67
2022/03/14 05:49:45;;;;;;;7.10;3.63;;;12.30;83.80;;;;;;4956945;28;20050;-66
2022/03/14 05:52:11;;;;;;;7.35;4.07;;;12.30;83.30;;;;;;4987228;28;20039;-66
2022/03/14 05:54:38;;;;;;;6.63;3.83;;;12.30;83.50;;;;;;4985359;28;20616;-67
2022/03/14 05:57:06;;;;;;;5.43;3.50;;;12.30;83.70;;;;;;4977324;28;20033;-66
2022/03/14 05:59:34;;;;;;;5.53;3.55;;;12.30;83.80;;;;;;4990608;28;20049;-66
2022/03/14 06:02:00;;;;;;;5.80;3.25;;;12.30;84.00;;;;;;4991514;28;20031;-66
2022/03/14 06:04:26;;;;;;;5.70;3.90;;;12.30;84.00;;;;;;4971723;28;20118;-66
2022/03/14 06:06:52;;;;;;;6.10;3.15;;;12.30;84.10;;;;;;4969101;28;20047;-68
2022/03/14 06:09:18;;;;;;;5.63;3.25;;;12.30;85.00;;;;;;4997262;28;20025;-69
2022/03/14 06:11:43;;;;;;;7.05;3.70;;;12.40;84.60;;;;;;4978131;28;20065;-68
2022/03/14 06:14:11;;;;;;;7.72;3.63;;;12.40;84.70;;;;;;4957591;28;20037;-68
2022/03/14 06:16:37;;;;;;;5.10;3.10;;;12.40;84.70;;;;;;4950010;28;20044;-69
2022/03/14 06:19:02;;;;;;;6.00;3.33;;;12.40;84.90;;;;;;4945654;28;20043;-67
2022/03/14 06:21:34;;;;;;;5.78;3.42;;;12.40;84.90;;;;;;4944634;28;20057;-67
2022/03/14 06:24:03;;;;;;;6.30;3.58;;;12.40;85.00;;;;;;4967264;28;20027;-67
2022/03/14 06:26:28;;;;;;;5.18;3.05;;;12.40;85.00;;;;;;4941713;28;20039;-67
2022/03/14 06:28:54;;;;;;;5.95;3.28;;;12.50;85.20;;;;;;4954431;28;20058;-68
2022/03/14 06:31:21;;;;;;;4.28;2.83;;;12.50;85.30;;;;;;4961632;28;20039;-66
2022/03/14 06:33:49;;;;;;;4.93;3.08;;;12.50;85.40;;;;;;4944704;28;20046;-67
2022/03/14 06:36:17;;;;;;;5.72;3.03;;;12.50;85.50;;;;;;4962807;28;20390;-67
2022/03/14 06:38:43;;;;;;;4.07;2.33;;;12.50;85.60;;;;;;4970352;28;20092;-71
2022/03/14 06:41:11;;;;;;;5.85;3.00;;;12.50;85.70;;;;;;4947410;28;20166;-69
2022/03/14 06:43:37;;;;;;;3.92;2.67;;;12.50;85.80;;;;;;4955333;28;20039;-66
2022/03/14 06:46:04;;;;;;;4.60;2.90;;;12.50;85.80;;;;;;4970205;28;20040;-67
2022/03/14 06:48:30;;;;;;;4.93;2.92;;;12.50;85.90;;;;;;4972221;28;20499;-69
2022/03/14 06:50:56;;;;;;;4.60;2.80;;;12.50;85.90;;;;;;4970866;28;20041;-73
2022/03/14 06:53:22;;;;;;;4.30;2.80;;;12.50;86.10;;;;;;4936910;28;20536;-72
2022/03/14 06:55:47;;;;;;;5.18;2.92;;;12.60;86.20;;;;;;4993966;28;20041;-65
2022/03/14 06:58:13;;;;;;;7.95;3.70;;;12.60;86.30;;;;;;4962859;28;20066;-65
2022/03/14 07:00:40;;;;;;;4.72;2.78;;;12.60;86.40;;;;;;4943843;28;20035;-65
2022/03/14 07:03:05;;;;;;;4.85;2.60;;;12.60;86.50;;;;;;4941336;28;20050;-65
2022/03/14 07:05:31;;;;;;;4.72;2.75;;;12.60;86.60;;;;;;4941841;28;20044;-65
2022/03/14 07:07:57;;;;;;;5.53;2.60;;;12.60;86.70;;;;;;4937453;28;20062;-65
2022/03/14 07:10:23;;;;;;;6.55;3.38;;;12.60;86.80;;;;;;4951002;28;20043;-65
2022/03/14 07:12:50;;;;;;;6.45;3.42;;;12.60;86.90;;;;;;4962024;28;20084;-65
2022/03/14 07:15:21;;;;;;;5.78;3.10;;;12.60;87.00;;;;;;4952315;28;20051;-65
2022/03/14 07:17:50;;;;;;;6.57;3.20;;;12.60;87.20;;;;;;4951530;28;20054;-65
2022/03/14 07:20:19;;;;;;;4.85;3.10;;;12.60;87.00;;;;;;4939736;28;20762;-65
2022/03/14 07:22:54;;;;;;;5.00;2.97;;;12.60;87.10;;;;;;4939901;28;20035;-65
2022/03/14 07:25:26;;;;;;;4.00;2.70;;;12.60;87.30;;;;;;4950052;28;20039;-65
2022/03/14 07:27:58;;;;;;;6.28;3.53;;;12.60;87.20;;;;;;4941948;28;20135;-65
2022/03/14 07:30:25;;;;;;;3.72;2.40;;;12.60;87.60;;;;;;4937844;28;21170;-65
2022/03/14 07:32:51;;;;;;;5.13;2.88;;;12.60;87.40;;;;;;5011373;28;20024;-65
2022/03/14 07:35:16;;;;;;;6.15;3.13;;;12.60;87.60;;;;;;4952186;28;20449;-65
2022/03/14 07:37:42;;;;;;;5.32;2.97;;;12.60;87.60;;;;;;4950859;28;20118;-65
2022/03/14 07:40:10;;;;;;;6.13;2.88;;;12.60;87.70;;;;;;4940583;28;20051;-65
2022/03/14 07:42:45;;;;;;;6.25;2.88;;;12.70;87.90;;;;;;4951788;28;20031;-65
2022/03/14 07:45:13;;;;;;;4.78;2.97;;;12.70;88.10;;;;;;4951682;28;20433;-65
2022/03/14 07:47:39;;;;;;;4.50;2.90;;;12.60;88.10;;;;;;4935849;28;20028;-65
2022/03/14 07:50:07;;;;;;;4.63;2.50;;;12.60;88.20;;;;;;4932674;28;20138;-65
2022/03/14 07:52:33;;;;;;;4.78;2.75;;;12.60;88.30;;;;;;4947703;28;20046;-65
2022/03/14 07:54:59;;;;;;;5.07;2.95;;;12.60;88.40;;;;;;4951461;28;20731;-65
2022/03/14 07:57:25;;;;;;;5.40;2.92;;;12.60;88.50;;;;;;4950841;28;20028;-64
2022/03/14 07:59:52;;;;;;;6.10;2.83;;;12.60;88.80;;;;;;4951218;28;20486;-65
2022/03/14 08:02:18;;;;;;;5.63;3.22;;;12.60;89.00;;;;;;4953314;28;20364;-65
2022/03/14 08:04:43;;;;;;;6.63;2.92;;;12.70;89.20;;;;;;4943523;28;20038;-65
2022/03/14 08:07:09;;;;;;;4.85;3.08;;;12.60;89.10;;;;;;4933269;28;20032;-65
2022/03/14 08:09:35;;;;;;;5.10;3.03;;;12.70;89.40;;;;;;4944129;28;20038;-65
2022/03/14 08:12:03;;;;;;;5.95;3.10;;;12.70;89.70;;;;;;4945139;28;20453;-65
2022/03/14 08:14:29;;;;;;;4.95;3.08;;;12.60;89.90;;;;;;4951348;28;20054;-65
2022/03/14 08:16:55;;;;;;;4.97;2.95;;;12.60;90.00;;;;;;4950910;28;20031;-65
2022/03/14 08:19:20;;;;;;;5.55;2.80;;;12.60;90.10;;;;;;4938171;28;20079;-65
2022/03/14 08:21:47;;;;;;;9.52;2.70;;;12.60;90.20;;;;;;4950687;28;20080;-65
2022/03/14 08:24:13;;;;;;;5.93;3.60;;;12.60;90.30;;;;;;4951359;28;20036;-65
2022/03/14 08:26:39;;;;;;;2.78;1.77;;;12.60;90.40;;;;;;4950600;28;20590;-65
2022/03/14 08:29:10;;;;;;;5.97;3.25;;;12.60;90.40;;;;;;4936221;28;20039;-65
2022/03/14 08:31:37;;;;;;;4.43;2.95;;;12.60;90.60;;;;;;4943677;28;20040;-65
2022/03/14 08:34:03;;;;;;;6.95;3.40;;;12.60;90.70;;;;;;4990510;28;20528;-65
2022/03/14 08:36:29;;;;;;;7.25;3.42;;;12.50;90.80;;;;;;4947437;28;20371;-65
2022/03/14 08:38:55;;;;;;;3.92;2.42;;;12.60;90.90;;;;;;4950853;28;20083;-65
2022/03/14 08:41:24;;;;;;;3.38;1.60;;;12.50;91.10;;;;;;4933745;28;20039;-65
2022/03/14 08:43:50;;;;;;;4.47;2.67;;;12.50;91.10;;;;;;4942093;28;20039;-65
2022/03/14 08:46:15;;;;;;;4.65;2.83;;;12.50;91.20;;;;;;4947560;28;20051;-65
2022/03/14 08:48:42;;;;;;;5.88;3.20;;;12.50;91.20;;;;;;4941177;28;20039;-65
2022/03/14 08:51:08;;;;;;;6.75;2.60;;;12.50;91.40;;;;;;4945528;28;20074;-65
2022/03/14 08:53:34;;;;;;;6.88;2.90;;;12.50;91.40;;;;;;4943763;28;20496;-65
2022/03/14 08:56:03;;;;;;;5.85;2.90;;;12.50;91.50;;;;;;4943964;28;20391;-65
2022/03/14 08:58:31;;;;;;;3.92;2.78;;;12.50;91.50;;;;;;4943349;28;20051;-65
2022/03/14 09:00:59;;;;;;;6.47;3.17;;;12.50;91.60;;;;;;4954225;28;20115;-65
2022/03/14 09:03:26;;;;;;;8.82;2.13;;;12.50;91.60;;;;;;4955821;28;20046;-65
2022/03/14 09:05:56;;;;;;;3.30;2.08;;;12.50;91.60;;;;;;4942774;29;20050;-65
2022/03/14 09:08:28;;;;;;;5.45;3.67;;;12.60;91.60;;;;;;4944848;28;20062;-65
2022/03/14 09:11:00;;;;;;;7.75;3.50;;;12.50;91.60;;;;;;4950156;28;20114;-65
2022/03/14 09:13:25;;;;;;;4.25;1.50;;;12.60;91.70;;;;;;4951635;28;20032;-65
2022/03/14 09:15:51;;;;;;;8.05;3.03;;;12.60;91.60;;;;;;4949782;28;20046;-66
2022/03/14 09:18:17;;;;;;;5.72;2.38;;;12.60;91.60;;;;;;4949422;28;20054;-66
2022/03/14 09:20:44;;;;;;;4.22;2.63;;;12.60;91.70;;;;;;4950064;28;20053;-67
2022/03/14 09:23:10;;;;;;;5.22;3.28;;;12.60;91.70;;;;;;4946603;28;20127;-68
2022/03/14 09:25:36;;;;;;;6.35;3.45;;;12.70;91.80;;;;;;4948202;28;20044;-68
2022/03/14 09:28:03;;;;;;;4.90;3.28;;;12.60;92.10;;;;;;4942172;28;20039;-68
2022/03/14 09:30:29;;;;;;;9.25;4.82;;;12.70;91.90;;;;;;4965624;28;20392;-68
2022/03/14 09:32:55;;;;;;;5.88;2.55;;;12.70;92.00;;;;;;4995217;28;20055;-69
2022/03/14 09:35:23;;;;;;;14.82;3.28;;;12.70;92.00;;;;;;4937793;28;20446;-70
2022/03/14 09:37:49;;;;;;;5.20;3.03;;;12.70;92.10;;;;;;4944512;28;20035;-70
2022/03/14 09:40:18;;;;;;;8.40;3.67;;;12.60;92.20;;;;;;4971489;28;20056;-70
2022/03/14 09:42:50;;;;;;;4.75;3.20;;;12.70;92.30;;;;;;5031409;28;20041;-70
2022/03/14 09:45:18;;;;;;;3.03;2.17;;;12.60;92.30;;;;;;4974807;28;20038;-69
2022/03/14 09:47:49;;;;;;;5.70;3.88;;;12.60;92.30;;;;;;4949233;28;20042;-70
2022/03/14 09:50:37;;;;;;;7.03;3.88;;;12.70;92.40;;;;;;4937844;28;20079;-66
2022/03/14 09:53:08;;;;;;;3.00;2.05;;;12.70;92.40;;;;;;4930717;28;20131;-66
2022/03/14 09:55:43;;;;;;;4.90;2.92;;;12.70;92.40;;;;;;4936882;28;20040;-66
2022/03/14 09:58:15;;;;;;;2.30;1.55;;;12.70;92.50;;;;;;4987318;28;20567;-68
2022/03/14 10:00:42;;;;;;;3.65;2.00;;;12.70;92.50;;;;;;4948117;28;20036;-68
2022/03/14 10:03:09;;;;;;;5.22;2.97;;;12.70;92.60;;;;;;4951018;28;20058;-68
2022/03/14 10:05:35;;;;;;;4.35;2.45;;;12.70;92.70;;;;;;4948180;28;20039;-68
2022/03/14 10:08:01;;;;;;;2.15;1.23;;;12.70;93.00;;;;;;5001692;28;20356;-68
2022/03/14 10:10:27;;;;;;;5.47;3.17;;;12.70;92.80;;;;;;4949876;28;20080;-68
2022/03/14 10:12:53;;;;;;;6.10;3.70;;;12.70;92.90;;;;;;4968794;28;20462;-68
2022/03/14 10:15:25;;;;;;;5.45;3.05;;;12.70;92.90;;;;;;4986166;28;20094;-68
2022/03/14 10:17:52;;;;;;;5.18;3.22;;;12.70;93.00;;;;;;4976034;28;20474;-68
2022/03/14 10:20:18;;;;;;;5.20;3.40;;;12.70;93.00;;;;;;4984067;28;20401;-68
2022/03/14 10:22:45;;;;;;;8.30;3.90;;;12.70;93.00;;;;;;4974354;28;20035;-68
2022/03/14 10:25:19;;;;;;;9.73;4.63;;;12.70;93.10;;;;;;4946397;28;20081;-68
2022/03/14 10:27:57;;;;;;;7.15;4.35;;;12.70;93.10;;;;;;4989729;28;20021;-69
2022/03/14 10:30:26;;;;;;;5.97;3.55;;;12.70;93.20;;;;;;4969979;28;20074;-69
2022/03/14 10:33:09;;;;;;;6.68;4.07;;;12.70;93.30;;;;;;5008005;28;20033;-68
2022/03/14 10:35:36;;;;;;;2.03;1.25;;;12.70;93.30;;;;;;4930315;28;20070;-68
2022/03/14 10:38:04;;;;;;;6.55;3.50;;;12.70;93.40;;;;;;4946343;28;20043;-68
2022/03/14 10:40:51;;;;;;;7.30;3.03;;;12.70;93.50;;;;;;4939125;28;20031;-68
2022/03/14 10:43:27;;;;;;;6.38;3.28;;;12.70;93.60;;;;;;4930731;28;20119;-68
2022/03/14 10:45:55;;;;;;;3.92;2.40;;;12.60;93.70;;;;;;4946070;28;20031;-68
2022/03/14 10:48:38;;;;;;;4.15;2.88;;;12.60;93.80;;;;;;4933126;28;20034;-68
2022/03/14 10:51:09;;;;;;;4.85;2.80;;;12.60;94.00;;;;;;4950810;28;20077;-69
2022/03/14 10:53:43;;;;;;;10.02;5.22;;;12.50;94.40;;;;;;4951618;28;20081;-69
2022/03/14 10:56:09;;;;;;;13.40;6.80;;;12.50;94.30;;;;;;4940569;28;20043;-69
2022/03/14 10:58:36;;;;;;;12.77;5.63;;;12.40;94.50;;;;;;4944959;28;20071;-69
2022/03/14 11:01:04;;;;;;;7.55;3.85;;;12.30;94.70;;;;;;4957919;28;20616;-69
2022/03/14 11:03:36;;;;;;;9.20;5.00;;;12.20;94.90;;;;;;4999697;28;20139;-70
2022/03/14 11:06:03;;;;;;;8.88;3.88;;;12.20;95.00;;;;;;4944965;28;20050;-69
2022/03/14 11:08:35;;;;;;;14.75;4.43;;;12.20;95.10;;;;;;4946008;28;20056;-69
2022/03/14 11:11:19;;;;;;;6.97;3.20;;;12.20;95.20;;;;;;4963523;28;20043;-70
2022/03/14 11:13:45;;;;;;;;;;;12.20;95.30;;;;;;4984162;28;20044;-69
2022/03/14 11:16:34;;;;;;;10.80;4.78;;;12.10;95.30;;;;;;4962995;28;19911;-69
2022/03/14 11:19:00;;;;;;;6.05;2.60;;;12.10;95.30;;;;;;4941012;28;20036;-69
2022/03/14 11:21:27;;;;;;;8.30;3.53;;;12.10;95.40;;;;;;4979133;28;20473;-70
2022/03/14 11:23:54;;;;;;;8.65;4.18;;;12.10;95.50;;;;;;4975808;28;20040;-69
2022/03/14 11:26:24;;;;;;;14.38;5.85;;;12.10;95.50;;;;;;5004572;28;20055;-69
2022/03/14 11:28:51;;;;;;;14.18;4.18;;;12.10;95.60;;;;;;4957168;28;20825;-68
2022/03/14 11:31:21;;;;;;;4.65;2.28;;;12.10;95.70;;;;;;4972662;28;20057;-67
2022/03/14 11:33:48;;;;;;;7.63;4.05;;;12.00;95.70;;;;;;4955419;28;20031;-67
2022/03/14 11:36:17;;;;;;;14.68;4.72;;;12.10;95.80;;;;;;4940027;28;20031;-67
2022/03/14 11:38:46;;;;;;;8.07;2.72;;;12.10;95.80;;;;;;4958506;28;20027;-67
2022/03/14 11:41:13;;;;;;;5.78;2.47;;;12.00;95.80;;;;;;4941165;28;20048;-67
2022/03/14 11:43:40;;;;;;;5.18;2.67;;;12.10;95.80;;;;;;4948034;28;20038;-67
2022/03/14 11:46:06;;;;;;;2.53;1.45;;;12.10;95.80;;;;;;4941000;28;20051;-67
2022/03/14 11:48:34;;;;;;;7.45;3.33;;;12.10;95.80;;;;;;4951666;28;20081;-68
2022/03/14 11:51:03;;;;;;;10.23;3.47;;;12.10;95.80;;;;;;4989214;28;20537;-67
2022/03/14 11:53:35;;;;;;;4.68;2.38;;;12.10;95.80;;;;;;4949146;28;20042;-67
2022/03/14 11:56:05;;;;;;;7.18;3.30;;;12.10;95.80;;;;;;4964486;28;20027;-66
2022/03/14 11:58:34;;;;;;;2.03;1.42;;;12.10;95.80;;;;;;4973590;28;20052;-66
2022/03/14 12:01:18;;;;;;;5.80;2.13;;;12.20;95.80;;;;;;4980334;28;20044;-66
2022/03/14 12:03:58;;;;;;;7.50;2.08;;;12.10;95.80;;;;;;4970530;28;20040;-66
2022/03/14 12:06:45;;;;;;;6.10;2.85;;;12.10;95.80;;;;;;4966708;28;20029;-66
2022/03/14 12:09:23;;;;;;;6.38;2.17;;;12.10;95.80;;;;;;4972938;28;20033;-66
2022/03/14 12:11:49;;;;;;;12.00;3.38;;;12.10;95.80;;;;;;4999757;28;20038;-66
2022/03/14 12:14:40;;;;;;;9.10;2.03;;;12.10;95.80;;;;;;4981266;28;20110;-66
2022/03/14 12:17:27;;;;;;;7.22;2.70;;;12.10;95.80;;;;;;4991780;28;20033;-66
2022/03/14 12:20:15;;;;;;;10.25;2.72;;;12.10;96.10;;;;;;4960262;28;20043;-66
2022/03/14 12:22:43;;;;;;;4.63;2.65;;;12.10;95.80;;;;;;4968209;28;20033;-67
2022/03/14 12:25:14;;;;;;;11.77;2.83;;;12.10;95.80;;;;;;4994347;28;20111;-66
2022/03/14 12:27:42;;;;;;;15.73;3.35;;;12.20;95.90;;;;;;4942355;28;20042;-67
2022/03/14 12:30:19;;;;;;;4.25;2.55;;;12.20;95.90;;;;;;4960975;28;20071;-67
2022/03/14 12:32:45;;;;;;;9.32;3.75;;;12.20;95.90;;;;;;4948754;28;20032;-66
2022/03/14 12:35:25;;;;;;;15.10;4.57;;;12.20;95.80;;;;;;4936159;28;20020;-66
2022/03/14 12:37:58;;;;;;;5.72;2.80;;;12.30;95.80;;;;;;4940425;28;20053;-66
2022/03/14 12:40:24;;;;;;;8.68;2.65;;;12.20;95.70;;;;;;4936236;28;20047;-66
2022/03/14 12:42:54;;;;;;;6.43;2.60;;;12.30;95.70;;;;;;4937810;28;20036;-66
2022/03/14 12:45:31;;;;;;;4.22;2.00;;;12.30;95.70;;;;;;4954809;28;20040;-66
2022/03/14 12:48:00;;;;;;;7.93;2.67;;;12.30;95.70;;;;;;4951683;28;20032;-66